Time;durP1;ratioP1;P1;durP2;ratioP2;P2;SDS_P1;SDS_P2;PMS_P1;PMS_P2;Temp;Humidity;BMP_temperature;BMP_pressure;BME280_temperature;BME280_humidity;BME280_pressure;Samples;Min_cycle;Max_cycle;Signal;HPM_P1;HPM_P2
2022/03/07 00:00:48;;;;;;;7.00;6.03;;;;;;;0.65;53.93;101948.72;5016154;27;20451;-70
2022/03/07 00:03:13;;;;;;;7.72;6.13;;;;;;;0.43;54.33;101945.00;5016548;27;20078;-71
2022/03/07 00:05:39;;;;;;;6.78;6.18;;;;;;;0.76;54.00;101947.56;5035101;27;20017;-70
2022/03/07 00:08:04;;;;;;;7.18;6.28;;;;;;;0.60;54.36;101944.53;5024606;27;20028;-70
2022/03/07 00:10:30;;;;;;;7.55;6.20;;;;;;;0.36;55.36;101949.50;5032542;27;20532;-70
2022/03/07 00:12:56;;;;;;;6.90;6.30;;;;;;;0.54;54.88;101945.56;5015739;27;20098;-71
2022/03/07 00:15:21;;;;;;;6.43;5.82;;;;;;;0.65;54.12;101938.31;5018051;27;20227;-71
2022/03/07 00:17:46;;;;;;;6.45;5.95;;;;;;;0.80;54.09;101946.56;4981970;28;20029;-69
2022/03/07 00:20:12;;;;;;;6.78;6.20;;;;;;;0.62;54.04;101953.16;5008076;27;20106;-69
2022/03/07 00:22:37;;;;;;;6.63;6.03;;;;;;;0.23;55.14;101956.81;5036379;27;20037;-68
2022/03/07 00:25:03;;;;;;;6.57;5.95;;;;;;;0.48;54.82;101961.34;5035780;27;20512;-69
2022/03/07 00:27:28;;;;;;;7.40;6.15;;;;;;;0.37;55.35;101968.59;5027335;27;20048;-69
2022/03/07 00:29:54;;;;;;;6.22;5.72;;;;;;;0.56;56.43;101968.97;5034606;27;20021;-69
2022/03/07 00:32:19;;;;;;;6.97;6.30;;;;;;;0.48;55.94;101966.53;5044519;27;20209;-70
2022/03/07 00:34:45;;;;;;;6.60;6.00;;;;;;;0.34;55.92;101970.38;5038009;27;20036;-69
2022/03/07 00:37:10;;;;;;;6.85;6.22;;;;;;;0.22;55.91;101960.28;5030222;27;20013;-69
2022/03/07 00:39:35;;;;;;;6.60;6.00;;;;;;;0.50;55.69;101964.78;5014771;27;20017;-67
2022/03/07 00:42:01;;;;;;;6.75;6.15;;;;;;;0.57;55.80;101968.91;5037511;27;20928;-68
2022/03/07 00:44:26;;;;;;;9.50;6.20;;;;;;;0.60;55.57;101963.63;5052698;27;20435;-69
2022/03/07 00:46:51;;;;;;;6.47;5.90;;;;;;;0.62;55.88;101963.56;5056114;27;20011;-69
2022/03/07 00:49:17;;;;;;;6.40;5.90;;;;;;;0.60;55.95;101971.44;5034889;27;20020;-69
2022/03/07 00:51:42;;;;;;;6.20;5.65;;;;;;;0.41;56.18;101963.28;5035764;27;20020;-72
2022/03/07 00:54:07;;;;;;;6.68;6.03;;;;;;;0.38;56.83;101962.50;5051093;27;20042;-68
2022/03/07 00:56:33;;;;;;;6.65;5.97;;;;;;;0.35;56.90;101971.22;5057786;27;20024;-70
2022/03/07 00:58:58;;;;;;;7.63;6.28;;;;;;;0.25;56.88;101960.19;5036480;27;20875;-69
2022/03/07 01:01:24;;;;;;;7.35;6.68;;;;;;;0.22;56.61;101967.25;5036403;27;20263;-70
2022/03/07 01:03:50;;;;;;;6.65;6.10;;;;;;;0.36;57.03;101972.94;5017142;27;20009;-69
2022/03/07 01:06:15;;;;;;;6.20;5.70;;;;;;;0.27;57.19;101968.84;5009737;27;20012;-70
2022/03/07 01:08:40;;;;;;;8.13;6.00;;;;;;;0.23;56.43;101964.59;5035464;27;20029;-69
2022/03/07 01:11:06;;;;;;;7.07;6.38;;;;;;;0.14;56.15;101965.72;5047256;27;20036;-69
2022/03/07 01:13:31;;;;;;;6.57;6.05;;;;;;;0.41;55.92;101959.78;5053387;27;20140;-70
2022/03/07 01:15:56;;;;;;;6.43;5.85;;;;;;;0.41;56.51;101960.66;5054257;27;20375;-70
2022/03/07 01:18:22;;;;;;;6.65;6.05;;;;;;;0.50;56.61;101965.63;5038605;27;20771;-70
2022/03/07 01:20:47;;;;;;;6.60;6.03;;;;;;;0.67;56.26;101977.34;5006069;27;20425;-70
2022/03/07 01:23:13;;;;;;;7.07;6.38;;;;;;;0.42;55.92;101962.34;5032751;27;20033;-69
2022/03/07 01:25:38;;;;;;;7.40;6.40;;;;;;;0.26;56.10;101966.28;5015350;27;20077;-68
2022/03/07 01:28:04;;;;;;;6.88;6.28;;;;;;;0.19;56.19;101964.75;5025795;27;20868;-70
2022/03/07 01:30:29;;;;;;;6.95;6.35;;;;;;;0.08;56.45;101957.19;5012869;28;20171;-70
2022/03/07 01:32:54;;;;;;;7.57;6.78;;;;;;;0.08;57.07;101957.19;4997693;28;20468;-70
2022/03/07 01:35:20;;;;;;;8.30;7.15;;;;;;;0.01;57.26;101950.44;5016692;27;20132;-69
2022/03/07 01:37:46;;;;;;;8.45;6.53;;;;;;;0.03;56.99;101951.25;5006089;27;20112;-69
2022/03/07 01:40:11;;;;;;;6.97;6.28;;;;;;;0.07;56.97;101945.06;5034958;27;20055;-68
2022/03/07 01:42:37;;;;;;;7.40;6.80;;;;;;;-0.05;57.15;101941.88;5025542;27;21109;-68
2022/03/07 01:45:11;;;;;;;7.90;7.05;;;;;;;-0.07;56.82;101948.00;5034865;27;20085;-70
2022/03/07 01:47:37;;;;;;;9.23;6.88;;;;;;;-0.07;56.79;101941.09;5034048;27;20070;-70
2022/03/07 01:50:04;;;;;;;8.65;7.05;;;;;;;-0.04;56.70;101938.41;5017441;27;20025;-72
2022/03/07 01:52:30;;;;;;;7.82;6.97;;;;;;;0.00;56.71;101941.78;5030366;27;20021;-71
2022/03/07 01:54:55;;;;;;;7.38;6.65;;;;;;;-0.04;57.43;101943.59;4997876;27;20024;-71
2022/03/07 01:57:21;;;;;;;7.35;6.65;;;;;;;-0.12;57.65;101935.13;5029136;27;20025;-70
2022/03/07 01:59:46;;;;;;;7.38;6.68;;;;;;;-0.22;57.19;101946.66;5032025;27;20896;-70
2022/03/07 02:02:12;;;;;;;7.22;6.63;;;;;;;-0.29;57.74;101938.16;5030809;27;20024;-70
2022/03/07 02:04:40;;;;;;;7.57;6.90;;;;;;;-0.32;58.13;101938.22;5015085;27;20838;-71
2022/03/07 02:07:06;;;;;;;7.40;6.70;;;;;;;-0.35;58.64;101939.16;5034297;27;20025;-68
2022/03/07 02:09:31;;;;;;;7.90;7.10;;;;;;;-0.47;58.93;101939.44;5041384;27;20308;-69
2022/03/07 02:11:56;;;;;;;7.10;6.47;;;;;;;-0.47;59.13;101931.63;5014154;27;20309;-70
2022/03/07 02:14:22;;;;;;;7.07;6.47;;;;;;;-0.53;59.59;101937.84;5013970;27;20029;-70
2022/03/07 02:16:47;;;;;;;7.38;6.70;;;;;;;-0.57;59.72;101933.59;5032499;27;20013;-70
2022/03/07 02:19:13;;;;;;;7.28;6.57;;;;;;;-0.50;59.82;101933.47;4999386;27;20093;-68
2022/03/07 02:21:49;;;;;;;7.75;7.05;;;;;;;-0.65;60.18;101937.28;5013335;27;20193;-70
2022/03/07 02:24:16;;;;;;;8.70;7.07;;;;;;;-0.70;60.68;101939.97;5030112;27;20028;-69
2022/03/07 02:26:41;;;;;;;7.75;6.63;;;;;;;-0.73;61.10;101940.06;5030932;27;20416;-70
2022/03/07 02:29:08;;;;;;;8.05;6.90;;;;;;;-0.69;61.66;101933.91;5013942;27;20543;-69
2022/03/07 02:31:34;;;;;;;7.60;6.90;;;;;;;-0.70;61.70;101933.03;5028185;27;20025;-70
2022/03/07 02:34:00;;;;;;;8.15;6.93;;;;;;;-0.70;61.52;101939.97;5015934;27;20027;-70
2022/03/07 02:36:25;;;;;;;6.70;6.10;;;;;;;-0.88;61.76;101942.09;5017176;27;20016;-68
2022/03/07 02:38:51;;;;;;;7.18;6.47;;;;;;;-0.85;61.42;101943.75;5024237;27;20054;-69
2022/03/07 02:41:16;;;;;;;6.35;5.85;;;;;;;-0.98;61.85;101937.13;5035991;27;20531;-70
2022/03/07 02:43:42;;;;;;;7.22;6.63;;;;;;;-0.97;61.89;101944.03;5014445;27;20028;-69
2022/03/07 02:46:07;;;;;;;8.50;7.22;;;;;;;-0.93;61.67;101943.06;5022013;27;20021;-69
2022/03/07 02:48:32;;;;;;;7.50;6.68;;;;;;;-1.04;62.15;101940.72;5014969;27;20025;-68
2022/03/07 02:50:58;;;;;;;7.65;6.85;;;;;;;-1.21;62.76;101934.13;5034141;27;20726;-70
2022/03/07 02:53:24;;;;;;;7.15;6.45;;;;;;;-1.14;62.85;101944.38;5052512;27;20474;-69
2022/03/07 02:55:50;;;;;;;7.72;6.63;;;;;;;-1.11;62.97;101939.16;5035793;27;20121;-69
2022/03/07 02:58:15;;;;;;;7.65;6.95;;;;;;;-1.09;62.64;101945.16;5033897;27;20025;-70
2022/03/07 03:00:40;;;;;;;7.32;6.63;;;;;;;-0.90;62.27;101943.88;5030144;27;20025;-68
2022/03/07 03:03:06;;;;;;;7.38;6.72;;;;;;;-0.89;62.27;101939.53;5034038;27;20120;-67
2022/03/07 03:05:31;;;;;;;7.38;6.70;;;;;;;-1.08;62.98;101937.31;5028539;27;20013;-68
2022/03/07 03:07:57;;;;;;;7.18;6.50;;;;;;;-0.97;62.64;101938.81;5029376;27;21006;-71
2022/03/07 03:10:22;;;;;;;7.25;6.55;;;;;;;-0.77;61.84;101941.00;5013503;27;20028;-68
2022/03/07 03:12:48;;;;;;;7.03;6.40;;;;;;;-0.79;62.00;101953.16;5027908;27;20025;-68
2022/03/07 03:15:13;;;;;;;9.68;6.45;;;;;;;-0.90;62.23;101951.66;5029597;27;20031;-67
2022/03/07 03:17:42;;;;;;;6.70;6.05;;;;;;;-0.75;61.59;101954.81;5030732;27;20036;-68
2022/03/07 03:20:10;;;;;;;7.80;6.50;;;;;;;-1.13;62.41;101952.16;5024236;27;20752;-70
2022/03/07 03:22:36;;;;;;;7.03;5.88;;;;;;;-1.25;62.74;101944.63;5010708;27;20509;-68
2022/03/07 03:25:01;;;;;;;6.72;6.13;;;;;;;-1.42;62.77;101952.75;5013271;27;20623;-69
2022/03/07 03:27:26;;;;;;;6.43;5.88;;;;;;;-1.32;62.98;101948.22;5023446;27;20032;-67
2022/03/07 03:29:52;;;;;;;8.32;6.32;;;;;;;-1.39;62.98;101957.88;5030202;27;20040;-68
2022/03/07 03:32:17;;;;;;;6.30;5.80;;;;;;;-1.31;62.87;101957.72;5028846;27;20009;-68
2022/03/07 03:34:43;;;;;;;6.63;5.88;;;;;;;-1.30;62.66;101962.03;5010778;27;20760;-68
2022/03/07 03:37:08;;;;;;;6.22;5.63;;;;;;;-1.38;62.59;101965.63;5020399;27;20013;-69
2022/03/07 03:39:33;;;;;;;6.15;5.47;;;;;;;-1.38;63.24;101965.63;5025457;27;20029;-69
2022/03/07 03:41:59;;;;;;;6.13;5.53;;;;;;;-1.46;63.38;101971.84;5028052;27;20041;-68
2022/03/07 03:44:24;;;;;;;6.70;6.00;;;;;;;-1.57;63.63;101969.44;5030512;28;20024;-68
2022/03/07 03:46:49;;;;;;;6.45;5.85;;;;;;;-1.62;63.74;101976.47;5030713;27;20500;-71
2022/03/07 03:49:15;;;;;;;6.90;6.20;;;;;;;-1.66;64.50;101969.66;5027999;28;20229;-70
2022/03/07 03:51:40;;;;;;;6.63;6.00;;;;;;;-1.53;64.55;101968.50;5030731;27;20025;-70
2022/03/07 03:54:05;;;;;;;6.57;5.97;;;;;;;-1.64;64.72;101978.25;5018445;28;20025;-70
2022/03/07 03:56:31;;;;;;;6.82;6.18;;;;;;;-1.68;65.03;101968.78;5004938;28;20025;-69
2022/03/07 03:58:56;;;;;;;9.57;6.40;;;;;;;-1.59;64.83;101966.88;5037352;28;20029;-69
2022/03/07 04:01:22;;;;;;;6.50;6.00;;;;;;;-1.79;64.79;101964.66;5010457;28;20815;-70
2022/03/07 04:03:47;;;;;;;6.50;5.90;;;;;;;-1.80;64.89;101968.13;4991945;28;20505;-71
2022/03/07 04:06:12;;;;;;;6.10;5.60;;;;;;;-1.83;65.07;101977.69;4983802;28;20535;-70
2022/03/07 04:08:50;;;;;;;6.45;5.85;;;;;;;-1.79;64.97;101980.22;5027959;28;20013;-70
2022/03/07 04:11:15;;;;;;;6.80;6.20;;;;;;;-1.74;64.73;101978.38;5028930;27;20016;-70
2022/03/07 04:13:41;;;;;;;6.55;5.90;;;;;;;-1.82;65.71;101980.28;5028886;28;20017;-70
2022/03/07 04:16:06;;;;;;;6.63;5.93;;;;;;;-1.52;64.78;101985.81;5009541;28;20010;-69
2022/03/07 04:18:31;;;;;;;6.00;5.47;;;;;;;-1.67;64.22;101991.28;5010588;28;20121;-69
2022/03/07 04:20:57;;;;;;;5.90;5.40;;;;;;;-1.50;63.57;101997.00;5007368;27;20025;-68
2022/03/07 04:23:24;;;;;;;6.75;6.05;;;;;;;-1.71;64.08;101984.44;5008500;28;20039;-69
2022/03/07 04:25:49;;;;;;;5.82;5.40;;;;;;;-1.59;63.74;101994.59;5007282;28;20001;-69
2022/03/07 04:28:14;;;;;;;6.15;5.65;;;;;;;-1.50;63.29;101994.41;5001307;28;20029;-68
2022/03/07 04:30:40;;;;;;;5.55;5.13;;;;;;;-1.65;63.84;101992.09;5025900;27;20044;-68
2022/03/07 04:33:05;;;;;;;5.80;5.38;;;;;;;-1.93;65.04;101983.06;5027840;27;20750;-69
2022/03/07 04:35:31;;;;;;;5.90;5.03;;;;;;;-1.91;65.56;101988.22;5009942;28;20424;-69
2022/03/07 04:37:56;;;;;;;5.90;5.40;;;;;;;-2.01;65.67;101994.44;5012144;27;20032;-69
2022/03/07 04:40:22;;;;;;;6.50;5.82;;;;;;;-2.14;66.03;101993.78;5029926;27;20032;-71
2022/03/07 04:42:47;;;;;;;5.93;5.30;;;;;;;-2.13;66.69;101990.28;5013217;27;20036;-70
2022/03/07 04:45:13;;;;;;;5.45;5.05;;;;;;;-2.11;66.27;101996.34;5034693;27;20032;-70
2022/03/07 04:47:38;;;;;;;6.80;5.63;;;;;;;-2.00;66.39;101990.94;5056641;27;20048;-68
2022/03/07 04:50:04;;;;;;;5.93;5.32;;;;;;;-2.18;66.66;101992.97;5047485;27;20094;-70
2022/03/07 04:52:30;;;;;;;5.70;5.20;;;;;;;-2.19;66.47;101993.00;4997052;27;20106;-70
2022/03/07 04:54:55;;;;;;;5.90;5.30;;;;;;;-2.19;66.99;101991.25;5003845;27;20001;-70
2022/03/07 04:57:20;;;;;;;5.38;4.97;;;;;;;-2.20;67.07;101991.28;5030458;27;20021;-68
2022/03/07 04:59:46;;;;;;;5.40;5.00;;;;;;;-2.29;67.15;101989.69;5032619;27;20031;-70
2022/03/07 05:02:13;;;;;;;5.60;5.20;;;;;;;-2.38;67.27;101993.28;5034754;27;20037;-68
2022/03/07 05:04:38;;;;;;;5.20;4.80;;;;;;;-2.35;66.99;101988.03;5031980;27;20297;-71
2022/03/07 05:07:04;;;;;;;4.93;4.53;;;;;;;-2.42;66.28;101989.88;5012672;27;20016;-69
2022/03/07 05:09:29;;;;;;;5.22;4.82;;;;;;;-2.37;66.23;101991.53;5030813;27;20021;-68
2022/03/07 05:11:55;;;;;;;5.32;4.65;;;;;;;-2.39;66.16;101995.91;5033881;27;20029;-68
2022/03/07 05:14:20;;;;;;;5.50;5.10;;;;;;;-2.46;66.64;101993.38;5029317;27;20920;-72
2022/03/07 05:16:45;;;;;;;5.43;5.03;;;;;;;-2.52;67.17;101998.66;5028516;27;20606;-71
2022/03/07 05:19:11;;;;;;;5.05;4.55;;;;;;;-2.36;66.58;101998.44;5027643;27;21204;-69
2022/03/07 05:21:37;;;;;;;5.45;4.70;;;;;;;-2.46;67.08;102003.75;4994317;27;20021;-71
2022/03/07 05:24:02;;;;;;;6.85;5.03;;;;;;;-2.52;67.27;102003.84;5031955;27;20033;-70
2022/03/07 05:26:28;;;;;;;4.88;4.47;;;;;;;-2.56;67.49;102002.16;5032033;27;20009;-70
2022/03/07 05:28:53;;;;;;;4.97;4.65;;;;;;;-2.60;67.87;102009.13;5011586;27;20134;-71
2022/03/07 05:31:19;;;;;;;5.47;5.03;;;;;;;-2.60;68.24;102005.69;5030042;27;20016;-69
2022/03/07 05:33:44;;;;;;;4.85;4.53;;;;;;;-2.57;68.27;102013.41;5012222;27;20021;-69
2022/03/07 05:36:09;;;;;;;4.82;4.43;;;;;;;-2.59;68.43;102013.44;5033316;27;20097;-70
2022/03/07 05:38:35;;;;;;;5.20;4.78;;;;;;;-2.65;68.72;102015.25;5032193;27;20019;-69
2022/03/07 05:41:00;;;;;;;4.75;4.35;;;;;;;-2.65;68.01;102008.34;5030212;27;20009;-71
2022/03/07 05:43:25;;;;;;;4.75;4.32;;;;;;;-2.71;68.39;102023.94;5014978;27;20041;-69
2022/03/07 05:45:51;;;;;;;4.55;4.28;;;;;;;-2.40;67.50;102022.69;5028696;27;20861;-70
2022/03/07 05:48:16;;;;;;;5.50;5.00;;;;;;;-2.47;67.50;102015.03;5014530;27;20033;-68
2022/03/07 05:50:42;;;;;;;4.85;4.53;;;;;;;-2.56;67.65;102009.09;5034158;27;20772;-71
2022/03/07 05:53:07;;;;;;;5.40;5.00;;;;;;;-2.61;67.40;102022.09;5015939;27;20009;-69
2022/03/07 05:55:33;;;;;;;5.00;4.68;;;;;;;-2.72;67.76;102016.19;5031267;27;20025;-70
2022/03/07 05:58:00;;;;;;;4.88;4.47;;;;;;;-2.65;67.69;102017.84;5033590;27;20579;-69
2022/03/07 06:00:25;;;;;;;4.85;4.38;;;;;;;-2.76;68.27;102015.41;5032652;27;20311;-69
2022/03/07 06:02:51;;;;;;;4.70;4.30;;;;;;;-2.76;68.38;102016.25;5036555;27;20041;-70
2022/03/07 06:05:16;;;;;;;5.30;4.43;;;;;;;-2.77;68.73;102011.94;5001816;27;20017;-68
2022/03/07 06:07:41;;;;;;;4.82;4.53;;;;;;;-2.78;68.36;102009.38;5030172;27;20051;-68
2022/03/07 06:10:07;;;;;;;6.10;4.97;;;;;;;-2.77;68.57;102014.53;4998504;27;20498;-68
2022/03/07 06:12:33;;;;;;;4.68;4.30;;;;;;;-2.84;68.51;102012.91;5031631;27;20033;-69
2022/03/07 06:15:03;;;;;;;5.50;4.50;;;;;;;-2.84;68.89;102018.06;5033704;27;20024;-69
2022/03/07 06:17:29;;;;;;;6.85;4.85;;;;;;;-2.81;68.29;102027.53;5031852;27;20025;-69
2022/03/07 06:19:54;;;;;;;4.72;4.40;;;;;;;-2.82;68.31;102021.53;5032927;27;20460;-69
2022/03/07 06:22:20;;;;;;;6.10;4.80;;;;;;;-2.83;68.54;102024.97;5033460;27;20033;-68
2022/03/07 06:24:45;;;;;;;5.60;5.10;;;;;;;-2.79;68.60;102025.81;5051287;27;20389;-69
2022/03/07 06:27:10;;;;;;;4.82;4.43;;;;;;;-2.78;68.52;102028.38;5043011;27;20009;-68
2022/03/07 06:29:36;;;;;;;4.82;4.45;;;;;;;-2.50;67.69;102038.34;5017478;27;20013;-69
2022/03/07 06:32:01;;;;;;;5.72;4.72;;;;;;;-2.37;67.57;102035.59;5031459;27;20789;-68
2022/03/07 06:34:27;;;;;;;5.13;4.63;;;;;;;-2.29;66.48;102024.25;5033309;27;20017;-68
2022/03/07 06:36:53;;;;;;;5.03;4.63;;;;;;;-2.48;67.27;102036.63;5017233;27;20381;-68
2022/03/07 06:39:19;;;;;;;4.90;4.40;;;;;;;-2.31;67.35;102038.13;5012744;27;20028;-69
2022/03/07 06:41:44;;;;;;;5.57;4.90;;;;;;;-2.26;66.99;102023.34;5034489;27;20500;-70
2022/03/07 06:44:09;;;;;;;5.50;5.00;;;;;;;-2.20;66.44;102027.59;5016610;27;20056;-70
2022/03/07 06:46:35;;;;;;;5.30;4.90;;;;;;;-2.32;67.00;102026.03;5034166;27;20020;-68
2022/03/07 06:49:00;;;;;;;6.10;4.97;;;;;;;-2.29;67.18;102020.81;5034992;27;20042;-70
2022/03/07 06:51:26;;;;;;;5.15;4.70;;;;;;;-2.32;67.11;102037.25;5032182;27;20017;-68
2022/03/07 06:53:51;;;;;;;5.85;5.10;;;;;;;-2.31;67.44;102036.38;5011584;27;20384;-69
2022/03/07 06:56:19;;;;;;;6.45;5.35;;;;;;;-2.22;67.67;102027.59;5035659;27;20016;-69
2022/03/07 06:58:46;;;;;;;4.88;4.57;;;;;;;-2.14;67.93;102030.94;5006277;27;20089;-69
2022/03/07 07:01:11;;;;;;;5.15;4.78;;;;;;;-2.14;68.54;102035.28;5028443;27;20024;-68
2022/03/07 07:03:36;;;;;;;5.18;4.78;;;;;;;-2.11;68.37;102038.66;5033925;27;20041;-67
2022/03/07 07:06:02;;;;;;;5.60;5.10;;;;;;;-2.09;68.70;102043.84;5037858;27;20011;-67
2022/03/07 07:08:27;;;;;;;5.50;5.05;;;;;;;-1.72;67.44;102045.88;5017563;27;20366;-67
2022/03/07 07:10:53;;;;;;;5.63;5.20;;;;;;;-1.56;66.23;102043.84;5034711;27;20019;-69
2022/03/07 07:13:18;;;;;;;7.28;5.57;;;;;;;-1.49;66.11;102049.81;5024462;27;20458;-68
2022/03/07 07:15:43;;;;;;;5.68;5.18;;;;;;;-1.52;66.53;102037.72;5015197;27;20021;-71
2022/03/07 07:18:09;;;;;;;6.05;5.45;;;;;;;-1.47;66.54;102046.28;5016940;27;20970;-68
2022/03/07 07:20:34;;;;;;;6.13;5.60;;;;;;;-1.39;66.61;102047.00;5032508;27;20035;-68
2022/03/07 07:23:00;;;;;;;5.95;5.45;;;;;;;-1.15;66.03;102050.03;5037894;27;20076;-70
2022/03/07 07:25:25;;;;;;;6.45;5.80;;;;;;;-0.92;65.05;102052.16;5027033;27;20037;-67
2022/03/07 07:27:50;;;;;;;6.65;5.72;;;;;;;-0.73;64.49;102044.88;5023400;27;20271;-69
2022/03/07 07:30:16;;;;;;;6.65;5.70;;;;;;;-0.70;63.57;102052.59;5009241;27;20374;-68
2022/03/07 07:32:41;;;;;;;8.07;6.03;;;;;;;-0.60;63.28;102063.66;5033206;27;20018;-68
2022/03/07 07:35:08;;;;;;;6.43;5.57;;;;;;;-0.41;62.84;102053.75;5016596;27;20758;-70
2022/03/07 07:37:33;;;;;;;9.50;5.90;;;;;;;-0.53;63.13;102054.84;5034706;27;20021;-69
2022/03/07 07:39:59;;;;;;;7.03;5.65;;;;;;;-0.38;62.73;102063.19;5015497;27;20027;-69
2022/03/07 07:42:24;;;;;;;7.72;5.90;;;;;;;-0.20;61.83;102052.41;5008585;27;20028;-68
2022/03/07 07:44:49;;;;;;;6.55;5.85;;;;;;;-0.08;62.03;102058.22;5035376;27;20019;-68
2022/03/07 07:47:15;;;;;;;6.00;5.50;;;;;;;-0.01;61.38;102057.19;5021193;28;20021;-68
2022/03/07 07:49:40;;;;;;;6.55;5.63;;;;;;;0.02;61.32;102061.47;5019407;28;20025;-69
2022/03/07 07:52:06;;;;;;;6.05;5.55;;;;;;;0.13;61.25;102059.44;5036471;27;20039;-69
2022/03/07 07:54:31;;;;;;;8.38;6.07;;;;;;;0.16;62.08;102061.97;5031569;28;20025;-69
2022/03/07 07:56:57;;;;;;;6.38;5.28;;;;;;;0.43;61.03;102059.59;5038212;27;20521;-70
2022/03/07 07:59:23;;;;;;;6.63;5.50;;;;;;;0.48;60.38;102062.91;5033273;28;20033;-68
2022/03/07 08:01:48;;;;;;;5.72;5.32;;;;;;;0.53;58.81;102055.84;5033945;27;20107;-68
2022/03/07 08:04:14;;;;;;;6.38;5.13;;;;;;;0.79;56.25;102064.72;5016662;28;20025;-67
2022/03/07 08:06:42;;;;;;;5.53;5.07;;;;;;;0.95;55.08;102065.19;5032903;27;20044;-68
2022/03/07 08:09:07;;;;;;;5.90;5.40;;;;;;;1.26;53.98;102065.16;5034997;27;20056;-69
2022/03/07 08:11:32;;;;;;;4.82;4.43;;;;;;;1.43;52.75;102067.28;5037081;27;20013;-69
2022/03/07 08:13:58;;;;;;;5.50;4.80;;;;;;;1.45;54.06;102069.84;5041325;27;20017;-69
2022/03/07 08:16:23;;;;;;;5.05;4.65;;;;;;;1.58;52.87;102065.97;5021710;27;20010;-69
2022/03/07 08:18:49;;;;;;;4.25;3.95;;;;;;;1.67;51.99;102067.44;5012955;27;20059;-68
2022/03/07 08:21:14;;;;;;;4.75;4.15;;;;;;;1.68;52.11;102056.97;5036094;27;20158;-68
2022/03/07 08:23:39;;;;;;;4.10;3.80;;;;;;;1.89;51.62;102059.81;5016956;27;20921;-68
2022/03/07 08:26:05;;;;;;;4.95;3.75;;;;;;;1.97;51.47;102052.56;5039171;27;20066;-68
2022/03/07 08:28:31;;;;;;;3.50;3.30;;;;;;;2.02;49.47;102058.53;5004083;27;20022;-68
2022/03/07 08:30:56;;;;;;;4.15;3.80;;;;;;;2.24;50.96;102047.38;5037054;27;20092;-68
2022/03/07 08:33:21;;;;;;;3.90;3.60;;;;;;;2.38;48.78;102049.53;5037448;27;20619;-69
2022/03/07 08:35:47;;;;;;;4.32;3.38;;;;;;;2.52;48.89;102043.84;5032981;27;20013;-69
2022/03/07 08:38:12;;;;;;;3.70;3.50;;;;;;;2.82;49.59;102041.06;5037412;27;20053;-69
2022/03/07 08:40:38;;;;;;;3.80;3.53;;;;;;;2.97;48.98;102047.50;5034012;27;20975;-67
2022/03/07 08:43:03;;;;;;;4.18;3.45;;;;;;;3.17;49.53;102036.31;5039521;27;20045;-68
2022/03/07 08:45:29;;;;;;;3.97;3.60;;;;;;;3.45;48.18;102043.97;4993797;27;20418;-68
2022/03/07 08:47:55;;;;;;;3.63;3.35;;;;;;;3.41;46.71;102042.38;4997805;27;20102;-69
2022/03/07 08:50:21;;;;;;;3.58;3.17;;;;;;;3.68;46.44;102053.56;5018490;27;20429;-69
2022/03/07 08:52:46;;;;;;;3.20;3.00;;;;;;;3.95;46.02;102045.53;5015964;27;20036;-69
2022/03/07 08:55:11;;;;;;;2.80;2.70;;;;;;;4.13;44.55;102038.69;5018788;27;20248;-68
2022/03/07 08:57:37;;;;;;;3.17;3.05;;;;;;;4.18;43.29;102047.22;5005311;27;20043;-69
2022/03/07 09:00:05;;;;;;;3.47;3.28;;;;;;;4.43;43.79;102035.72;5014241;27;20021;-69
2022/03/07 09:02:30;;;;;;;3.45;3.25;;;;;;;4.59;44.01;102042.00;5022649;27;20894;-69
2022/03/07 09:04:56;;;;;;;3.47;3.13;;;;;;;4.66;42.20;102052.22;5037036;27;20022;-68
2022/03/07 09:07:21;;;;;;;3.17;2.97;;;;;;;5.06;43.56;102045.22;5033495;27;20035;-69
2022/03/07 09:09:46;;;;;;;3.50;3.20;;;;;;;5.24;42.15;102044.38;5016277;27;20435;-68
2022/03/07 09:12:12;;;;;;;3.30;3.10;;;;;;;5.43;40.71;102052.28;5031056;27;20020;-68
2022/03/07 09:14:37;;;;;;;3.42;3.13;;;;;;;5.72;41.20;102043.94;5036262;27;20009;-69
2022/03/07 09:17:03;;;;;;;3.20;3.00;;;;;;;5.47;39.64;102045.97;5035431;27;20029;-70
2022/03/07 09:19:28;;;;;;;3.30;3.10;;;;;;;5.50;41.02;102047.59;5037953;27;20128;-69
2022/03/07 09:21:53;;;;;;;3.00;2.80;;;;;;;5.67;40.24;102052.91;5064468;27;20008;-68
2022/03/07 09:24:19;;;;;;;3.17;2.97;;;;;;;5.97;40.98;102041.00;5067915;27;20008;-69
2022/03/07 09:26:45;;;;;;;3.00;2.90;;;;;;;6.64;39.00;102034.16;5043597;27;20887;-70
2022/03/07 09:29:10;;;;;;;3.33;2.95;;;;;;;7.01;38.77;102034.03;5044549;27;20253;-70
2022/03/07 09:31:36;;;;;;;3.00;2.90;;;;;;;7.20;38.50;102031.22;5012110;27;20499;-70
2022/03/07 09:34:01;;;;;;;5.47;3.28;;;;;;;7.10;37.47;102036.16;5014664;27;20021;-70
2022/03/07 09:36:27;;;;;;;2.90;2.70;;;;;;;7.92;35.71;102026.38;5046428;27;20145;-70
2022/03/07 09:38:52;;;;;;;2.83;2.63;;;;;;;7.69;35.46;102027.69;5044960;27;20029;-69
2022/03/07 09:41:18;;;;;;;3.00;2.80;;;;;;;7.33;36.48;102018.25;5047291;27;20492;-69
2022/03/07 09:43:44;;;;;;;3.03;2.83;;;;;;;7.72;36.76;102024.88;5043061;27;20041;-69
2022/03/07 09:46:09;;;;;;;2.78;2.63;;;;;;;8.50;34.53;102016.88;5019703;27;20017;-70
2022/03/07 09:48:35;;;;;;;3.08;2.78;;;;;;;8.78;34.92;102012.56;5046169;27;20033;-70
2022/03/07 09:51:00;;;;;;;3.60;3.40;;;;;;;8.68;33.53;102017.53;5028882;27;20021;-71
2022/03/07 09:53:25;;;;;;;2.65;2.55;;;;;;;9.14;34.02;102013.00;5036747;27;20018;-69
2022/03/07 09:55:51;;;;;;;2.60;2.40;;;;;;;8.90;33.88;102011.81;5027286;27;20165;-70
2022/03/07 09:58:16;;;;;;;3.85;2.80;;;;;;;9.64;34.32;102003.66;5045642;27;20025;-70
2022/03/07 10:00:42;;;;;;;2.80;2.67;;;;;;;9.48;32.04;102009.09;5020316;28;20025;-69
2022/03/07 10:03:09;;;;;;;3.22;2.45;;;;;;;9.72;31.15;102008.47;5024890;27;20091;-70
2022/03/07 10:05:36;;;;;;;2.65;2.47;;;;;;;9.15;31.82;102005.03;5026866;27;20013;-70
2022/03/07 10:08:03;;;;;;;2.90;2.60;;;;;;;9.58;31.82;101996.16;5013654;27;20253;-69
2022/03/07 10:10:36;;;;;;;2.60;2.50;;;;;;;10.14;32.09;102006.59;5028933;27;20022;-70
2022/03/07 10:13:06;;;;;;;3.35;3.17;;;;;;;10.35;31.99;102000.81;5019109;27;19997;-69
2022/03/07 10:15:31;;;;;;;3.25;2.70;;;;;;;10.40;30.86;101993.41;5008980;27;20025;-69
2022/03/07 10:17:57;;;;;;;6.38;3.03;;;;;;;10.57;31.68;101993.09;5027050;27;20449;-69
2022/03/07 10:20:24;;;;;;;6.40;5.90;;;;;;;11.33;30.53;101985.97;5019369;27;20259;-69
2022/03/07 10:22:51;;;;;;;2.88;2.67;;;;;;;11.76;29.43;101983.78;5009047;27;20079;-71
2022/03/07 10:25:21;;;;;;;2.85;2.60;;;;;;;12.39;29.38;101991.50;5008726;27;20810;-69
2022/03/07 10:27:49;;;;;;;3.17;2.60;;;;;;;12.17;29.19;101983.38;5042772;27;20687;-69
2022/03/07 10:30:20;;;;;;;2.58;2.40;;;;;;;13.68;28.22;101986.56;5028033;27;20013;-70
2022/03/07 10:32:56;;;;;;;3.70;2.78;;;;;;;12.86;28.04;102000.22;5024953;27;20017;-70
2022/03/07 10:35:26;;;;;;;2.58;2.38;;;;;;;12.70;27.49;101985.50;5033715;27;20020;-70
2022/03/07 10:37:54;;;;;;;4.10;2.85;;;;;;;12.27;28.31;101980.84;5043340;27;20146;-70
2022/03/07 10:40:21;;;;;;;2.33;2.22;;;;;;;12.99;26.98;101982.34;5037353;27;20524;-71
2022/03/07 10:42:47;;;;;;;2.50;2.40;;;;;;;12.97;26.44;101978.13;5029557;27;20047;-70
2022/03/07 10:45:13;;;;;;;10.02;2.50;;;;;;;13.07;26.13;101987.03;5009744;27;20013;-70
2022/03/07 10:47:38;;;;;;;3.10;2.42;;;;;;;12.19;27.80;101983.25;5016492;27;20494;-71
2022/03/07 10:50:04;;;;;;;3.15;2.88;;;;;;;11.72;28.06;101977.00;5044553;27;20032;-70
2022/03/07 10:52:35;;;;;;;2.80;2.70;;;;;;;12.96;27.03;101974.63;5032145;27;20916;-70
2022/03/07 10:55:00;;;;;;;2.33;2.20;;;;;;;13.39;25.54;101976.50;5056660;27;20032;-70
2022/03/07 10:57:26;;;;;;;2.60;2.50;;;;;;;13.10;26.37;101978.84;5018509;27;20926;-71
2022/03/07 10:59:51;;;;;;;2.95;2.85;;;;;;;13.20;26.63;101973.63;5028774;27;20032;-70
2022/03/07 11:02:17;;;;;;;2.33;2.22;;;;;;;13.51;26.47;101964.03;5016241;27;20051;-69
2022/03/07 11:04:44;;;;;;;2.45;2.35;;;;;;;14.47;26.13;101963.16;5033986;27;20025;-70
2022/03/07 11:07:09;;;;;;;2.53;2.42;;;;;;;14.84;24.00;101950.16;5027895;27;20032;-70
2022/03/07 11:09:38;;;;;;;2.55;2.35;;;;;;;14.91;23.97;101955.81;5046054;27;20113;-70
2022/03/07 11:12:04;;;;;;;2.38;2.28;;;;;;;15.15;23.83;101951.94;5012957;27;20025;-70
2022/03/07 11:14:30;;;;;;;2.42;2.10;;;;;;;15.86;24.54;101943.72;5013311;27;20017;-69
2022/03/07 11:16:56;;;;;;;1.80;1.70;;;;;;;16.18;23.28;101950.56;5006635;27;20017;-71
2022/03/07 11:19:22;;;;;;;4.88;2.50;;;;;;;15.68;24.34;101930.22;5031378;27;20877;-70
2022/03/07 11:21:50;;;;;;;2.05;1.98;;;;;;;15.49;23.16;101941.72;5010701;27;20017;-69